Date,TemperatureHighF,TemperatureAvgF,TemperatureLowF,DewpointHighF,DewpointAvgF,DewpointLowF,HumidityHigh,HumidityAvg,HumidityLow,PressureMaxIn,PressureMinIn,WindSpeedMaxMPH,WindSpeedAvgMPH,GustSpeedMaxMPH,PrecipitationSumIn
2013-2-1,38.5,23.8,11.7,16.2,7.1,0.8,68,49,40,30.41,30.14,14,5,18,0.00
2013-2-2,57.4,40.8,25.0,33.9,23.5,7.4,78,51,39,30.26,30.14,14,4,20,0.00
2013-2-3,58.5,45.6,28.9,31.6,25.2,18.3,65,46,36,30.28,29.86,13,6,22,0.00
2013-2-4,59.9,44.7,30.9,34.2,26.8,21.9,70,50,38,29.98,29.80,12,5,17,0.00
2013-2-5,69.8,45.9,25.5,41.3,27.8,18.9,84,52,34,30.06,29.92,8,3,11,0.00
2013-2-6,63.5,49.9,37.2,55.2,39.6,23.7,100,69,41,30.06,29.84,16,7,22,0.00
2013-2-7,56.3,48.0,34.2,51.1,38.3,24.5,100,72,42,30.20,29.84,13,5,18,0.16
2013-2-8,43.9,33.8,27.1,30.6,27.0,24.4,100,77,54,30.34,30.14,10,4,15,0.00
2013-2-9,49.5,39.6,33.4,40.8,32.8,27.6,100,78,57,30.14,29.64,17,9,25,0.00
2013-2-10,53.8,42.4,29.8,45.7,29.4,18.2,100,63,40,30.03,29.48,25,10,35,0.00
2013-2-11,50.9,36.2,25.3,26.2,19.3,14.8,69,51,38,30.22,30.03,11,4,15,0.00
2013-2-12,42.6,34.8,27.7,23.1,19.0,15.4,71,52,45,30.18,30.00,7,2,9,0.00
2013-2-13,60.4,39.6,20.5,33.2,23.4,15.6,88,56,36,30.00,29.87,16,4,21,0.00
2013-2-14,50.9,38.4,29.1,31.7,22.3,15.0,67,53,41,30.27,29.92,15,4,19,0.00
2013-2-15,45.7,31.7,18.7,21.8,14.7,8.0,75,51,39,30.41,30.27,13,5,20,0.00
2013-2-16,50.4,32.7,13.8,27.4,16.4,4.9,68,52,38,30.36,30.01,17,5,26,0.00
2013-2-17,70.2,49.2,26.6,41.4,28.6,16.8,77,47,34,30.01,29.60,18,7,27,0.00
2013-2-18,54.9,45.3,28.6,35.1,25.6,13.0,66,46,37,30.14,29.47,22,10,31,0.00
2013-2-19,50.0,33.1,21.0,25.2,14.8,5.3,66,48,38,30.34,30.13,9,4,14,0.00
2013-2-20,31.5,25.4,22.5,22.3,13.4,3.9,80,62,40,30.27,30.03,14,8,19,0.00
2013-2-21,29.5,22.4,14.5,21.9,18.1,11.1,97,84,68,30.04,29.70,13,7,40,0.00
2013-2-22,37.8,19.1,8.6,17.2,7.9,0.2,86,63,43,30.11,29.87,11,5,15,0.04
2013-2-23,45.9,24.2,5.9,25.8,11.8,-3.0,79,60,44,30.09,29.90,10,4,13,0.20
2013-2-24,46.6,35.5,23.2,28.4,22.7,14.5,71,60,47,29.92,29.81,11,6,16,0.00
2013-2-25,35.6,32.7,30.4,32.4,28.5,23.4,100,85,63,29.89,29.70,14,6,22,0.00
2013-2-26,41.5,31.2,25.7,30.4,24.3,19.5,100,77,52,29.92,29.71,12,2,15,0.24
2013-2-27,41.7,32.5,26.8,26.2,23.1,17.2,92,69,50,30.16,29.91,15,7,20,0.00
2013-2-28,38.5,31.4,24.1,23.9,21.4,17.9,79,67,54,30.24,30.16,12,6,17,0.00